Allenhurst, GA (31301)

4:39 AM EST on March 04, 2015 (GMT -0500)
Elim / Davenport Acres - Long County | Change Station
CLOSE
Current Station
Personal Weather Station
Location: Ludowici, GA
Elevation: 89 ft
Nearby Weather Stations

Elev 89 ft 31.79 °N, 81.69 °W | Updated 6 seconds ago

Partly Cloudy
Partly Cloudy
64.7 °F
Feels Like 64.7 °F
N
0.0
Wind Variable Wind from SSE
Gusts 0.0 mph

Today
High -- | Low -- °F
--% Chance of Precip.
Yesterday
High -- | Low -- °F
Precip. -- in
6:50 AM 6:26 PM
Waxing Gibbous, 98% visible
Pressure 30.07 in
Visibility 7.0 miles
Clouds Few 2800 ft
Dew Point 65 °F
Humidity 100%
Rainfall 0.00 in
Snow Depth Not available.
UV 0 out of 12
Pollen 4.50 out of 12
Air Quality Not available.
Flu Activity Not available.
SPECI KLHW 040928Z AUTO 00000KT 7SM R33/5500FT FEW028 17/16 A3007 RMK AO2

More Conditions Fewer Conditions

Pressure 30.07 in
Visibility 7.0 miles
Clouds Few 2800 ft
Dew Point 65 °F
Humidity 100%
Rainfall 0.00 in
Snow Depth Not available.
UV 0 out of 12
Pollen 4.50 out of 12
Air Quality Not available.
Flu Activity Not available.
SPECI KLHW 040928Z AUTO 00000KT 7SM R33/5500FT FEW028 17/16 A3007 RMK AO2

More Conditions Fewer Conditions

10-Day Weather Forecast

Almanac

Astronomy

Mar. 04, 2015 Rise Set
Actual Time
Civil Twilight
Nautical Twilight
Astronomical Twilight
Moon
Length of Visible Light
Length of Day
Tomorrow will be .
, % of the Moon is Illuminated

Today's Extremes

State Highs State Lows

Community

WunderPhotos

Upload Photos

1,802,425 photos uploaded!

WunderBlogs® & News

Nearby

Air Quality

  Air Quality AQ Index Pollutant
Not available.

Snow Depth

Station Depth Elevation

Earthquake Activity

City Distance Mag. Time & Date
Minimum magnitude displayed is 2.5.

Coastal Water Temperatures

Place Temperature

Nearby Weather Stations